sensor_id;sensor_type;location;lat;lon;timestamp;temperature;humidity
47590;DHT22;33316;52.298;9.056;2024-03-22T00:00:04;11.20;95.40
47590;DHT22;33316;52.298;9.056;2024-03-22T00:02:39;11.20;95.00
47590;DHT22;33316;52.298;9.056;2024-03-22T00:05:06;11.20;95.10
47590;DHT22;33316;52.298;9.056;2024-03-22T00:07:32;11.20;95.10
47590;DHT22;33316;52.298;9.056;2024-03-22T00:09:59;11.20;95.10
47590;DHT22;33316;52.298;9.056;2024-03-22T00:12:25;11.30;95.10
47590;DHT22;33316;52.298;9.056;2024-03-22T00:14:52;11.30;95.10
47590;DHT22;33316;52.298;9.056;2024-03-22T00:17:20;11.30;95.10
47590;DHT22;33316;52.298;9.056;2024-03-22T00:19:48;11.30;95.50
47590;DHT22;33316;52.298;9.056;2024-03-22T00:22:16;11.30;95.20
47590;DHT22;33316;52.298;9.056;2024-03-22T00:24:43;11.30;95.20
47590;DHT22;33316;52.298;9.056;2024-03-22T00:27:09;11.30;95.20
47590;DHT22;33316;52.298;9.056;2024-03-22T00:29:39;11.30;95.30
47590;DHT22;33316;52.298;9.056;2024-03-22T00:32:05;11.30;95.30
47590;DHT22;33316;52.298;9.056;2024-03-22T00:34:33;11.30;95.30
47590;DHT22;33316;52.298;9.056;2024-03-22T00:37:00;11.30;95.40
47590;DHT22;33316;52.298;9.056;2024-03-22T00:39:27;11.30;95.30
47590;DHT22;33316;52.298;9.056;2024-03-22T00:41:53;11.30;95.40
47590;DHT22;33316;52.298;9.056;2024-03-22T00:44:21;11.30;95.40
47590;DHT22;33316;52.298;9.056;2024-03-22T00:46:47;11.30;95.40
47590;DHT22;33316;52.298;9.056;2024-03-22T00:49:14;11.30;95.40
47590;DHT22;33316;52.298;9.056;2024-03-22T00:51:40;11.30;95.40
47590;DHT22;33316;52.298;9.056;2024-03-22T00:54:10;11.30;95.40
47590;DHT22;33316;52.298;9.056;2024-03-22T00:56:36;11.30;95.40
47590;DHT22;33316;52.298;9.056;2024-03-22T00:59:05;11.40;95.60
47590;DHT22;33316;52.298;9.056;2024-03-22T01:01:32;11.40;95.40
47590;DHT22;33316;52.298;9.056;2024-03-22T01:03:59;11.30;95.40
47590;DHT22;33316;52.298;9.056;2024-03-22T01:06:25;11.40;95.50
47590;DHT22;33316;52.298;9.056;2024-03-22T01:08:55;11.40;95.50
47590;DHT22;33316;52.298;9.056;2024-03-22T01:11:23;11.40;95.70
47590;DHT22;33316;52.298;9.056;2024-03-22T01:13:50;11.40;95.50
47590;DHT22;33316;52.298;9.056;2024-03-22T01:16:16;11.40;95.50
47590;DHT22;33316;52.298;9.056;2024-03-22T01:18:43;11.30;95.50
47590;DHT22;33316;52.298;9.056;2024-03-22T01:21:09;11.40;95.60
47590;DHT22;33316;52.298;9.056;2024-03-22T01:23:36;11.40;95.50
47590;DHT22;33316;52.298;9.056;2024-03-22T01:26:02;11.40;95.50
47590;DHT22;33316;52.298;9.056;2024-03-22T01:28:30;11.40;95.60
47590;DHT22;33316;52.298;9.056;2024-03-22T01:30:56;11.40;95.60
47590;DHT22;33316;52.298;9.056;2024-03-22T01:33:23;11.40;95.60
47590;DHT22;33316;52.298;9.056;2024-03-22T01:35:49;11.40;95.60
47590;DHT22;33316;52.298;9.056;2024-03-22T01:38:16;11.30;95.70
47590;DHT22;33316;52.298;9.056;2024-03-22T01:40:42;11.40;95.70
47590;DHT22;33316;52.298;9.056;2024-03-22T01:43:09;11.30;95.70
47590;DHT22;33316;52.298;9.056;2024-03-22T01:45:37;11.30;95.80
47590;DHT22;33316;52.298;9.056;2024-03-22T01:48:04;11.40;95.80
47590;DHT22;33316;52.298;9.056;2024-03-22T01:50:32;11.30;95.80
47590;DHT22;33316;52.298;9.056;2024-03-22T01:52:59;11.40;95.80
47590;DHT22;33316;52.298;9.056;2024-03-22T01:55:25;11.40;95.80
47590;DHT22;33316;52.298;9.056;2024-03-22T01:57:54;11.40;95.90
47590;DHT22;33316;52.298;9.056;2024-03-22T02:00:22;11.40;95.90
47590;DHT22;33316;52.298;9.056;2024-03-22T02:02:50;11.40;95.80
47590;DHT22;33316;52.298;9.056;2024-03-22T02:05:18;11.40;95.80
47590;DHT22;33316;52.298;9.056;2024-03-22T02:07:46;11.40;95.80
47590;DHT22;33316;52.298;9.056;2024-03-22T02:10:12;11.40;95.90
47590;DHT22;33316;52.298;9.056;2024-03-22T02:12:41;11.40;95.90
47590;DHT22;33316;52.298;9.056;2024-03-22T02:15:08;11.40;95.90
47590;DHT22;33316;52.298;9.056;2024-03-22T02:17:35;11.40;95.90
47590;DHT22;33316;52.298;9.056;2024-03-22T02:20:03;11.40;96.00
47590;DHT22;33316;52.298;9.056;2024-03-22T02:22:30;11.40;96.00
47590;DHT22;33316;52.298;9.056;2024-03-22T02:24:58;11.40;96.00
47590;DHT22;33316;52.298;9.056;2024-03-22T02:27:25;11.40;96.10
47590;DHT22;33316;52.298;9.056;2024-03-22T02:29:51;11.40;96.10
47590;DHT22;33316;52.298;9.056;2024-03-22T02:32:18;11.40;96.20
47590;DHT22;33316;52.298;9.056;2024-03-22T02:34:44;11.40;96.20
47590;DHT22;33316;52.298;9.056;2024-03-22T02:37:11;11.40;96.20
47590;DHT22;33316;52.298;9.056;2024-03-22T02:39:37;11.40;96.20
47590;DHT22;33316;52.298;9.056;2024-03-22T02:42:06;11.40;96.30
47590;DHT22;33316;52.298;9.056;2024-03-22T02:44:32;11.40;96.40
47590;DHT22;33316;52.298;9.056;2024-03-22T02:46:59;11.40;96.40
47590;DHT22;33316;52.298;9.056;2024-03-22T02:49:25;11.50;96.50
47590;DHT22;33316;52.298;9.056;2024-03-22T02:51:52;11.40;96.50
47590;DHT22;33316;52.298;9.056;2024-03-22T02:54:18;11.40;96.60
47590;DHT22;33316;52.298;9.056;2024-03-22T02:56:44;11.50;96.70
47590;DHT22;33316;52.298;9.056;2024-03-22T02:59:12;11.50;96.70
47590;DHT22;33316;52.298;9.056;2024-03-22T03:01:38;11.50;96.70
47590;DHT22;33316;52.298;9.056;2024-03-22T03:04:04;11.50;96.80
47590;DHT22;33316;52.298;9.056;2024-03-22T03:06:31;11.50;96.80
47590;DHT22;33316;52.298;9.056;2024-03-22T03:08:57;11.50;96.90
47590;DHT22;33316;52.298;9.056;2024-03-22T03:11:24;11.40;96.90
47590;DHT22;33316;52.298;9.056;2024-03-22T03:13:50;11.50;97.00
47590;DHT22;33316;52.298;9.056;2024-03-22T03:16:18;11.40;97.00
47590;DHT22;33316;52.298;9.056;2024-03-22T03:18:44;11.40;97.00
47590;DHT22;33316;52.298;9.056;2024-03-22T03:21:11;11.40;97.00
47590;DHT22;33316;52.298;9.056;2024-03-22T03:23:36;11.40;97.00
47590;DHT22;33316;52.298;9.056;2024-03-22T03:26:04;11.50;97.10
47590;DHT22;33316;52.298;9.056;2024-03-22T03:28:30;11.40;97.10
47590;DHT22;33316;52.298;9.056;2024-03-22T03:30:57;11.40;97.10
47590;DHT22;33316;52.298;9.056;2024-03-22T03:33:24;11.40;97.20
47590;DHT22;33316;52.298;9.056;2024-03-22T03:35:51;11.40;97.20
47590;DHT22;33316;52.298;9.056;2024-03-22T03:38:17;11.50;97.30
47590;DHT22;33316;52.298;9.056;2024-03-22T03:40:44;11.50;97.30
47590;DHT22;33316;52.298;9.056;2024-03-22T03:43:10;11.40;97.30
47590;DHT22;33316;52.298;9.056;2024-03-22T03:45:37;11.50;97.40
47590;DHT22;33316;52.298;9.056;2024-03-22T03:48:04;11.50;97.40
47590;DHT22;33316;52.298;9.056;2024-03-22T03:50:32;11.40;97.50
47590;DHT22;33316;52.298;9.056;2024-03-22T03:52:58;11.50;97.50
47590;DHT22;33316;52.298;9.056;2024-03-22T03:55:25;11.50;97.50
47590;DHT22;33316;52.298;9.056;2024-03-22T03:57:50;11.50;97.50
47590;DHT22;33316;52.298;9.056;2024-03-22T04:00:18;11.50;97.60
47590;DHT22;33316;52.298;9.056;2024-03-22T04:02:48;11.40;97.50
47590;DHT22;33316;52.298;9.056;2024-03-22T04:05:16;11.50;97.60
47590;DHT22;33316;52.298;9.056;2024-03-22T04:07:47;11.50;97.60
47590;DHT22;33316;52.298;9.056;2024-03-22T04:10:14;11.50;97.70
47590;DHT22;33316;52.298;9.056;2024-03-22T04:12:40;11.50;97.70
47590;DHT22;33316;52.298;9.056;2024-03-22T04:15:07;11.50;97.70
47590;DHT22;33316;52.298;9.056;2024-03-22T04:17:33;11.50;97.70
47590;DHT22;33316;52.298;9.056;2024-03-22T04:20:00;11.50;97.70
47590;DHT22;33316;52.298;9.056;2024-03-22T04:22:26;11.50;97.70
47590;DHT22;33316;52.298;9.056;2024-03-22T04:24:54;11.50;97.80
47590;DHT22;33316;52.298;9.056;2024-03-22T04:27:21;11.50;97.80
47590;DHT22;33316;52.298;9.056;2024-03-22T04:29:47;11.50;97.80
47590;DHT22;33316;52.298;9.056;2024-03-22T04:32:13;11.50;97.80
47590;DHT22;33316;52.298;9.056;2024-03-22T04:34:41;11.50;97.90
47590;DHT22;33316;52.298;9.056;2024-03-22T04:37:07;11.50;97.90
47590;DHT22;33316;52.298;9.056;2024-03-22T04:39:34;11.50;97.90
47590;DHT22;33316;52.298;9.056;2024-03-22T04:42:03;11.50;97.90
47590;DHT22;33316;52.298;9.056;2024-03-22T04:44:30;11.50;98.00
47590;DHT22;33316;52.298;9.056;2024-03-22T04:46:57;11.50;98.00
47590;DHT22;33316;52.298;9.056;2024-03-22T04:49:23;11.50;98.00
47590;DHT22;33316;52.298;9.056;2024-03-22T04:51:50;11.50;98.00
47590;DHT22;33316;52.298;9.056;2024-03-22T04:54:19;11.50;98.00
47590;DHT22;33316;52.298;9.056;2024-03-22T04:56:44;11.50;98.00
47590;DHT22;33316;52.298;9.056;2024-03-22T04:59:12;11.50;98.00
47590;DHT22;33316;52.298;9.056;2024-03-22T05:01:41;11.50;98.00
47590;DHT22;33316;52.298;9.056;2024-03-22T05:04:09;11.50;98.00
47590;DHT22;33316;52.298;9.056;2024-03-22T05:06:35;11.60;98.20
47590;DHT22;33316;52.298;9.056;2024-03-22T05:09:02;11.60;98.00
47590;DHT22;33316;52.298;9.056;2024-03-22T05:11:29;11.60;98.00
47590;DHT22;33316;52.298;9.056;2024-03-22T05:13:57;11.60;98.00
47590;DHT22;33316;52.298;9.056;2024-03-22T05:16:24;11.60;98.10
47590;DHT22;33316;52.298;9.056;2024-03-22T05:18:50;11.60;98.10
47590;DHT22;33316;52.298;9.056;2024-03-22T05:21:16;11.60;98.20
47590;DHT22;33316;52.298;9.056;2024-03-22T05:23:43;11.60;98.20
47590;DHT22;33316;52.298;9.056;2024-03-22T05:26:11;11.60;98.20
47590;DHT22;33316;52.298;9.056;2024-03-22T05:28:38;11.60;98.20
47590;DHT22;33316;52.298;9.056;2024-03-22T05:31:04;11.60;98.20
47590;DHT22;33316;52.298;9.056;2024-03-22T05:33:32;11.60;98.20
47590;DHT22;33316;52.298;9.056;2024-03-22T05:35:58;11.60;98.20
47590;DHT22;33316;52.298;9.056;2024-03-22T05:38:25;11.60;98.20
47590;DHT22;33316;52.298;9.056;2024-03-22T05:40:51;11.60;98.20
47590;DHT22;33316;52.298;9.056;2024-03-22T05:43:18;11.60;98.20
47590;DHT22;33316;52.298;9.056;2024-03-22T05:45:44;11.60;98.20
47590;DHT22;33316;52.298;9.056;2024-03-22T05:48:11;11.70;98.30
47590;DHT22;33316;52.298;9.056;2024-03-22T05:50:38;11.70;98.30
47590;DHT22;33316;52.298;9.056;2024-03-22T05:53:05;11.70;98.60
47590;DHT22;33316;52.298;9.056;2024-03-22T05:55:31;11.70;98.30
47590;DHT22;33316;52.298;9.056;2024-03-22T05:57:58;11.70;98.30
47590;DHT22;33316;52.298;9.056;2024-03-22T06:00:24;11.70;98.40
47590;DHT22;33316;52.298;9.056;2024-03-22T06:02:53;11.70;98.70
47590;DHT22;33316;52.298;9.056;2024-03-22T06:05:19;11.70;98.30
47590;DHT22;33316;52.298;9.056;2024-03-22T06:07:47;11.70;98.40
47590;DHT22;33316;52.298;9.056;2024-03-22T06:10:13;11.70;98.30
47590;DHT22;33316;52.298;9.056;2024-03-22T06:12:40;11.70;98.30
47590;DHT22;33316;52.298;9.056;2024-03-22T06:15:07;11.80;98.40
47590;DHT22;33316;52.298;9.056;2024-03-22T06:17:34;11.80;98.40
47590;DHT22;33316;52.298;9.056;2024-03-22T06:20:00;11.80;98.40
47590;DHT22;33316;52.298;9.056;2024-03-22T06:22:27;11.80;98.40
47590;DHT22;33316;52.298;9.056;2024-03-22T06:24:54;11.80;98.40
47590;DHT22;33316;52.298;9.056;2024-03-22T06:27:21;11.80;98.40
47590;DHT22;33316;52.298;9.056;2024-03-22T06:29:48;11.80;98.40
47590;DHT22;33316;52.298;9.056;2024-03-22T06:32:15;11.80;98.40
47590;DHT22;33316;52.298;9.056;2024-03-22T06:34:41;11.80;98.70
47590;DHT22;33316;52.298;9.056;2024-03-22T06:37:08;11.90;98.40
47590;DHT22;33316;52.298;9.056;2024-03-22T06:39:34;11.90;98.40
47590;DHT22;33316;52.298;9.056;2024-03-22T06:42:02;11.90;98.40
47590;DHT22;33316;52.298;9.056;2024-03-22T06:44:28;11.90;98.50
47590;DHT22;33316;52.298;9.056;2024-03-22T06:46:55;11.90;98.50
47590;DHT22;33316;52.298;9.056;2024-03-22T06:49:21;11.90;98.50
47590;DHT22;33316;52.298;9.056;2024-03-22T06:51:57;11.90;98.50
47590;DHT22;33316;52.298;9.056;2024-03-22T06:54:25;11.90;98.60
47590;DHT22;33316;52.298;9.056;2024-03-22T06:56:52;12.00;98.60
47590;DHT22;33316;52.298;9.056;2024-03-22T06:59:20;12.00;98.60
47590;DHT22;33316;52.298;9.056;2024-03-22T07:01:46;12.00;98.60
47590;DHT22;33316;52.298;9.056;2024-03-22T07:04:12;12.00;98.60
47590;DHT22;33316;52.298;9.056;2024-03-22T07:06:39;12.00;98.60
47590;DHT22;33316;52.298;9.056;2024-03-22T07:09:07;12.00;98.60
47590;DHT22;33316;52.298;9.056;2024-03-22T07:11:37;12.10;98.60
47590;DHT22;33316;52.298;9.056;2024-03-22T07:14:03;12.10;98.60
47590;DHT22;33316;52.298;9.056;2024-03-22T07:16:31;12.10;98.60
47590;DHT22;33316;52.298;9.056;2024-03-22T07:18:57;12.10;98.60
47590;DHT22;33316;52.298;9.056;2024-03-22T07:21:24;12.10;98.60
47590;DHT22;33316;52.298;9.056;2024-03-22T07:23:50;12.10;98.60
47590;DHT22;33316;52.298;9.056;2024-03-22T07:26:17;12.20;98.60
47590;DHT22;33316;52.298;9.056;2024-03-22T07:28:43;12.20;98.60
47590;DHT22;33316;52.298;9.056;2024-03-22T07:31:10;12.20;98.60
47590;DHT22;33316;52.298;9.056;2024-03-22T07:33:37;12.20;98.60
47590;DHT22;33316;52.298;9.056;2024-03-22T07:36:05;12.20;98.70
47590;DHT22;33316;52.298;9.056;2024-03-22T07:38:31;12.30;98.70
47590;DHT22;33316;52.298;9.056;2024-03-22T07:40:58;12.30;98.70
47590;DHT22;33316;52.298;9.056;2024-03-22T07:43:24;12.30;98.70
47590;DHT22;33316;52.298;9.056;2024-03-22T07:45:51;12.30;98.70
47590;DHT22;33316;52.298;9.056;2024-03-22T07:48:19;12.30;98.60
47590;DHT22;33316;52.298;9.056;2024-03-22T07:50:58;12.30;98.60
47590;DHT22;33316;52.298;9.056;2024-03-22T07:53:26;12.40;98.70
47590;DHT22;33316;52.298;9.056;2024-03-22T07:55:54;12.40;98.70
47590;DHT22;33316;52.298;9.056;2024-03-22T07:58:21;12.40;98.60
47590;DHT22;33316;52.298;9.056;2024-03-22T08:00:49;12.40;98.60
47590;DHT22;33316;52.298;9.056;2024-03-22T08:03:16;12.40;98.60
47590;DHT22;33316;52.298;9.056;2024-03-22T08:05:42;12.40;98.60
47590;DHT22;33316;52.298;9.056;2024-03-22T08:08:16;12.40;98.60
47590;DHT22;33316;52.298;9.056;2024-03-22T08:10:43;12.40;98.60
47590;DHT22;33316;52.298;9.056;2024-03-22T08:13:10;12.50;98.80
47590;DHT22;33316;52.298;9.056;2024-03-22T08:15:38;12.50;98.60
47590;DHT22;33316;52.298;9.056;2024-03-22T08:18:05;12.50;98.50
47590;DHT22;33316;52.298;9.056;2024-03-22T08:20:31;12.60;98.50
47590;DHT22;33316;52.298;9.056;2024-03-22T08:23:04;12.60;98.50
47590;DHT22;33316;52.298;9.056;2024-03-22T08:25:31;12.60;98.50
47590;DHT22;33316;52.298;9.056;2024-03-22T08:27:59;12.60;98.50
47590;DHT22;33316;52.298;9.056;2024-03-22T08:30:25;12.70;98.50
47590;DHT22;33316;52.298;9.056;2024-03-22T08:32:52;12.70;98.50
47590;DHT22;33316;52.298;9.056;2024-03-22T08:35:18;12.70;98.50
47590;DHT22;33316;52.298;9.056;2024-03-22T08:37:49;12.80;98.50
47590;DHT22;33316;52.298;9.056;2024-03-22T08:40:17;12.80;98.40
47590;DHT22;33316;52.298;9.056;2024-03-22T08:42:45;12.80;98.40
47590;DHT22;33316;52.298;9.056;2024-03-22T08:45:13;12.80;98.40
47590;DHT22;33316;52.298;9.056;2024-03-22T08:47:42;12.80;98.30
47590;DHT22;33316;52.298;9.056;2024-03-22T08:50:08;12.80;98.20
47590;DHT22;33316;52.298;9.056;2024-03-22T08:52:36;12.90;98.20
47590;DHT22;33316;52.298;9.056;2024-03-22T08:55:05;12.90;98.20
47590;DHT22;33316;52.298;9.056;2024-03-22T08:57:32;12.90;98.10
47590;DHT22;33316;52.298;9.056;2024-03-22T09:00:00;12.90;98.00
47590;DHT22;33316;52.298;9.056;2024-03-22T09:02:27;12.90;98.00
47590;DHT22;33316;52.298;9.056;2024-03-22T09:04:53;12.90;98.00
47590;DHT22;33316;52.298;9.056;2024-03-22T09:07:21;13.00;97.90
47590;DHT22;33316;52.298;9.056;2024-03-22T09:09:49;12.90;97.80
47590;DHT22;33316;52.298;9.056;2024-03-22T09:12:19;13.00;97.80
47590;DHT22;33316;52.298;9.056;2024-03-22T09:14:45;13.00;97.80
47590;DHT22;33316;52.298;9.056;2024-03-22T09:17:16;13.00;97.70
47590;DHT22;33316;52.298;9.056;2024-03-22T09:19:41;13.00;97.70
47590;DHT22;33316;52.298;9.056;2024-03-22T09:22:09;13.00;97.70
47590;DHT22;33316;52.298;9.056;2024-03-22T09:24:35;13.00;97.60
47590;DHT22;33316;52.298;9.056;2024-03-22T09:27:02;13.00;97.60
47590;DHT22;33316;52.298;9.056;2024-03-22T09:29:34;13.10;97.60
47590;DHT22;33316;52.298;9.056;2024-03-22T09:32:01;13.10;97.50
47590;DHT22;33316;52.298;9.056;2024-03-22T09:34:29;13.10;97.50
47590;DHT22;33316;52.298;9.056;2024-03-22T09:36:57;13.10;97.50
47590;DHT22;33316;52.298;9.056;2024-03-22T09:39:25;13.10;97.40
47590;DHT22;33316;52.298;9.056;2024-03-22T09:42:01;13.10;97.30
47590;DHT22;33316;52.298;9.056;2024-03-22T09:44:32;13.10;97.30
47590;DHT22;33316;52.298;9.056;2024-03-22T09:47:02;13.20;97.30
47590;DHT22;33316;52.298;9.056;2024-03-22T09:49:29;13.20;97.20
47590;DHT22;33316;52.298;9.056;2024-03-22T09:51:56;13.20;97.20
47590;DHT22;33316;52.298;9.056;2024-03-22T09:54:25;13.20;97.20
47590;DHT22;33316;52.298;9.056;2024-03-22T09:56:53;13.20;97.20
47590;DHT22;33316;52.298;9.056;2024-03-22T09:59:19;13.30;97.20
47590;DHT22;33316;52.298;9.056;2024-03-22T10:01:47;13.30;97.10
47590;DHT22;33316;52.298;9.056;2024-03-22T10:04:13;13.30;97.00
47590;DHT22;33316;52.298;9.056;2024-03-22T10:06:45;13.30;96.90
47590;DHT22;33316;52.298;9.056;2024-03-22T10:09:12;13.40;96.90
47590;DHT22;33316;52.298;9.056;2024-03-22T10:11:39;13.40;96.80
47590;DHT22;33316;52.298;9.056;2024-03-22T10:14:15;13.40;96.80
47590;DHT22;33316;52.298;9.056;2024-03-22T10:16:42;13.40;96.80
47590;DHT22;33316;52.298;9.056;2024-03-22T10:19:08;13.40;96.90
47590;DHT22;33316;52.298;9.056;2024-03-22T10:21:35;13.50;96.90
47590;DHT22;33316;52.298;9.056;2024-03-22T10:24:02;13.50;96.70
47590;DHT22;33316;52.298;9.056;2024-03-22T10:26:32;13.50;96.70
47590;DHT22;33316;52.298;9.056;2024-03-22T10:29:05;13.50;96.60
47590;DHT22;33316;52.298;9.056;2024-03-22T10:31:34;13.50;96.60
47590;DHT22;33316;52.298;9.056;2024-03-22T10:34:02;13.50;96.60
47590;DHT22;33316;52.298;9.056;2024-03-22T10:36:32;13.50;96.60
47590;DHT22;33316;52.298;9.056;2024-03-22T10:38:58;13.60;96.60
47590;DHT22;33316;52.298;9.056;2024-03-22T10:41:28;13.60;96.70
47590;DHT22;33316;52.298;9.056;2024-03-22T10:43:54;13.70;96.60
47590;DHT22;33316;52.298;9.056;2024-03-22T10:46:26;13.70;96.60
47590;DHT22;33316;52.298;9.056;2024-03-22T10:48:55;13.70;96.60
47590;DHT22;33316;52.298;9.056;2024-03-22T10:51:25;13.80;96.60
47590;DHT22;33316;52.298;9.056;2024-03-22T10:53:53;13.80;96.50
47590;DHT22;33316;52.298;9.056;2024-03-22T10:56:22;13.80;96.40
47590;DHT22;33316;52.298;9.056;2024-03-22T10:58:52;13.90;96.40
47590;DHT22;33316;52.298;9.056;2024-03-22T11:01:25;13.90;96.30
47590;DHT22;33316;52.298;9.056;2024-03-22T11:04:03;13.90;96.20
47590;DHT22;33316;52.298;9.056;2024-03-22T11:06:31;13.90;96.20
47590;DHT22;33316;52.298;9.056;2024-03-22T11:08:59;13.90;96.20
47590;DHT22;33316;52.298;9.056;2024-03-22T11:11:28;13.90;96.10
47590;DHT22;33316;52.298;9.056;2024-03-22T11:13:58;13.90;96.00
47590;DHT22;33316;52.298;9.056;2024-03-22T11:16:25;13.90;95.90
47590;DHT22;33316;52.298;9.056;2024-03-22T11:18:51;13.90;95.90
47590;DHT22;33316;52.298;9.056;2024-03-22T11:21:18;13.90;95.90
47590;DHT22;33316;52.298;9.056;2024-03-22T11:23:45;13.90;96.00
47590;DHT22;33316;52.298;9.056;2024-03-22T11:26:13;13.80;95.90
47590;DHT22;33316;52.298;9.056;2024-03-22T11:28:39;13.90;96.30
47590;DHT22;33316;52.298;9.056;2024-03-22T11:31:07;13.90;96.00
47590;DHT22;33316;52.298;9.056;2024-03-22T11:33:33;13.90;96.00
47590;DHT22;33316;52.298;9.056;2024-03-22T11:36:01;13.90;96.00
47590;DHT22;33316;52.298;9.056;2024-03-22T11:38:27;13.90;96.00
47590;DHT22;33316;52.298;9.056;2024-03-22T11:40:57;13.90;96.00
47590;DHT22;33316;52.298;9.056;2024-03-22T11:43:26;13.90;96.00
47590;DHT22;33316;52.298;9.056;2024-03-22T11:45:54;13.90;95.90
47590;DHT22;33316;52.298;9.056;2024-03-22T11:48:22;13.80;95.80
47590;DHT22;33316;52.298;9.056;2024-03-22T11:50:49;13.80;95.70
47590;DHT22;33316;52.298;9.056;2024-03-22T11:53:16;13.80;95.70
47590;DHT22;33316;52.298;9.056;2024-03-22T11:55:43;13.80;95.70
47590;DHT22;33316;52.298;9.056;2024-03-22T11:58:09;13.80;95.50
47590;DHT22;33316;52.298;9.056;2024-03-22T12:00:36;13.80;95.50
47590;DHT22;33316;52.298;9.056;2024-03-22T12:03:04;13.80;95.50
47590;DHT22;33316;52.298;9.056;2024-03-22T12:05:33;13.80;95.50
47590;DHT22;33316;52.298;9.056;2024-03-22T12:08:01;13.80;95.50
47590;DHT22;33316;52.298;9.056;2024-03-22T12:10:28;13.80;95.50
47590;DHT22;33316;52.298;9.056;2024-03-22T12:12:54;13.80;95.50
47590;DHT22;33316;52.298;9.056;2024-03-22T12:15:22;13.70;95.40
47590;DHT22;33316;52.298;9.056;2024-03-22T12:17:48;13.70;95.40
47590;DHT22;33316;52.298;9.056;2024-03-22T12:20:19;13.70;95.50
47590;DHT22;33316;52.298;9.056;2024-03-22T12:22:47;13.60;95.50
47590;DHT22;33316;52.298;9.056;2024-03-22T12:25:14;13.60;95.50
47590;DHT22;33316;52.298;9.056;2024-03-22T12:27:40;13.60;95.50
47590;DHT22;33316;52.298;9.056;2024-03-22T12:30:09;13.60;95.50
47590;DHT22;33316;52.298;9.056;2024-03-22T12:32:36;13.60;95.50
47590;DHT22;33316;52.298;9.056;2024-03-22T12:35:03;13.60;95.50
47590;DHT22;33316;52.298;9.056;2024-03-22T12:37:29;13.50;95.60
47590;DHT22;33316;52.298;9.056;2024-03-22T12:39:58;13.50;95.70
47590;DHT22;33316;52.298;9.056;2024-03-22T12:42:23;13.50;96.00
47590;DHT22;33316;52.298;9.056;2024-03-22T12:44:51;13.50;96.20
47590;DHT22;33316;52.298;9.056;2024-03-22T12:47:17;13.50;96.40
47590;DHT22;33316;52.298;9.056;2024-03-22T12:49:45;13.50;96.50
47590;DHT22;33316;52.298;9.056;2024-03-22T12:52:10;13.40;96.60
47590;DHT22;33316;52.298;9.056;2024-03-22T12:54:37;13.40;96.70
47590;DHT22;33316;52.298;9.056;2024-03-22T12:57:05;13.40;96.70
47590;DHT22;33316;52.298;9.056;2024-03-22T12:59:36;13.40;96.70
47590;DHT22;33316;52.298;9.056;2024-03-22T13:02:04;13.40;96.70
47590;DHT22;33316;52.298;9.056;2024-03-22T13:04:36;13.40;96.70
47590;DHT22;33316;52.298;9.056;2024-03-22T13:07:02;13.40;96.70
47590;DHT22;33316;52.298;9.056;2024-03-22T13:09:29;13.40;96.70
47590;DHT22;33316;52.298;9.056;2024-03-22T13:11:55;13.30;96.60
47590;DHT22;33316;52.298;9.056;2024-03-22T13:14:24;13.40;96.60
47590;DHT22;33316;52.298;9.056;2024-03-22T13:16:50;13.40;96.60
47590;DHT22;33316;52.298;9.056;2024-03-22T13:19:16;13.30;96.60
47590;DHT22;33316;52.298;9.056;2024-03-22T13:21:44;13.30;96.60
47590;DHT22;33316;52.298;9.056;2024-03-22T13:24:14;13.40;96.60
47590;DHT22;33316;52.298;9.056;2024-03-22T13:26:42;13.30;96.50
47590;DHT22;33316;52.298;9.056;2024-03-22T13:29:10;13.30;96.50
47590;DHT22;33316;52.298;9.056;2024-03-22T13:31:37;13.30;96.40
47590;DHT22;33316;52.298;9.056;2024-03-22T13:34:04;13.30;96.50
47590;DHT22;33316;52.298;9.056;2024-03-22T13:36:31;13.30;96.50
47590;DHT22;33316;52.298;9.056;2024-03-22T13:39:04;13.30;96.50
47590;DHT22;33316;52.298;9.056;2024-03-22T13:41:30;13.30;96.50
47590;DHT22;33316;52.298;9.056;2024-03-22T13:44:01;13.30;96.50
47590;DHT22;33316;52.298;9.056;2024-03-22T13:46:34;13.30;96.50
47590;DHT22;33316;52.298;9.056;2024-03-22T13:49:14;13.30;96.50
47590;DHT22;33316;52.298;9.056;2024-03-22T13:51:43;13.30;96.50
47590;DHT22;33316;52.298;9.056;2024-03-22T13:54:10;13.20;96.40
47590;DHT22;33316;52.298;9.056;2024-03-22T13:56:36;13.20;96.50
47590;DHT22;33316;52.298;9.056;2024-03-22T13:59:03;13.20;96.60
47590;DHT22;33316;52.298;9.056;2024-03-22T14:01:30;13.10;96.60
47590;DHT22;33316;52.298;9.056;2024-03-22T14:03:58;13.10;96.70
47590;DHT22;33316;52.298;9.056;2024-03-22T14:06:25;13.10;96.90
47590;DHT22;33316;52.298;9.056;2024-03-22T14:08:52;13.10;97.00
47590;DHT22;33316;52.298;9.056;2024-03-22T14:11:20;13.10;97.20
47590;DHT22;33316;52.298;9.056;2024-03-22T14:13:47;13.10;97.40
47590;DHT22;33316;52.298;9.056;2024-03-22T14:16:14;13.10;97.50
47590;DHT22;33316;52.298;9.056;2024-03-22T14:18:40;13.10;97.70
47590;DHT22;33316;52.298;9.056;2024-03-22T14:21:10;13.10;97.80
47590;DHT22;33316;52.298;9.056;2024-03-22T14:23:38;13.10;97.90
47590;DHT22;33316;52.298;9.056;2024-03-22T14:26:06;13.10;98.00
47590;DHT22;33316;52.298;9.056;2024-03-22T14:28:32;13.00;98.10
47590;DHT22;33316;52.298;9.056;2024-03-22T14:31:01;13.00;98.20
47590;DHT22;33316;52.298;9.056;2024-03-22T14:33:30;13.00;98.30
47590;DHT22;33316;52.298;9.056;2024-03-22T14:35:57;13.00;98.50
47590;DHT22;33316;52.298;9.056;2024-03-22T14:38:25;13.00;98.60
47590;DHT22;33316;52.298;9.056;2024-03-22T14:40:54;13.00;98.70
47590;DHT22;33316;52.298;9.056;2024-03-22T14:43:23;13.00;98.90
47590;DHT22;33316;52.298;9.056;2024-03-22T14:45:51;13.00;98.90
47590;DHT22;33316;52.298;9.056;2024-03-22T14:48:18;13.00;99.00
47590;DHT22;33316;52.298;9.056;2024-03-22T14:50:46;13.00;99.00
47590;DHT22;33316;52.298;9.056;2024-03-22T14:53:12;13.00;99.00
47590;DHT22;33316;52.298;9.056;2024-03-22T14:55:40;13.00;99.10
47590;DHT22;33316;52.298;9.056;2024-03-22T14:58:07;13.00;99.10
47590;DHT22;33316;52.298;9.056;2024-03-22T15:00:34;12.90;99.20
47590;DHT22;33316;52.298;9.056;2024-03-22T15:03:02;12.90;99.20
47590;DHT22;33316;52.298;9.056;2024-03-22T15:05:29;12.90;99.30
47590;DHT22;33316;52.298;9.056;2024-03-22T15:07:56;12.80;99.40
47590;DHT22;33316;52.298;9.056;2024-03-22T15:10:23;12.80;99.50
47590;DHT22;33316;52.298;9.056;2024-03-22T15:12:51;12.80;99.50
47590;DHT22;33316;52.298;9.056;2024-03-22T15:15:19;12.80;99.60
47590;DHT22;33316;52.298;9.056;2024-03-22T15:17:46;12.80;99.60
47590;DHT22;33316;52.298;9.056;2024-03-22T15:20:13;12.80;99.70
47590;DHT22;33316;52.298;9.056;2024-03-22T15:22:39;12.80;99.70
47590;DHT22;33316;52.298;9.056;2024-03-22T15:25:06;12.80;99.80
47590;DHT22;33316;52.298;9.056;2024-03-22T15:27:32;12.80;99.80
47590;DHT22;33316;52.298;9.056;2024-03-22T15:29:59;12.80;99.80